Time;durP1;ratioP1;P1;durP2;ratioP2;P2;SDS_P1;SDS_P2;PMS_P1;PMS_P2;Temp;Humidity;BMP_temperature;BMP_pressure;BME280_temperature;BME280_humidity;BME280_pressure;Samples;Min_cycle;Max_cycle;Signal;HPM_P1;HPM_P2
2022/08/23 00:01:49;;;;;;;7.82;4.57;;;;;;;23.31;46.00;101227.50;5090712;28;20044;-67
2022/08/23 00:04:36;;;;;;;8.23;4.20;;;;;;;23.28;46.18;101225.13;5091081;28;20054;-68
2022/08/23 00:07:06;;;;;;;8.40;3.90;;;;;;;23.23;45.88;101224.81;5090788;28;20062;-68
2022/08/23 00:09:33;;;;;;;5.50;4.30;;;;;;;23.20;46.23;101230.66;5091039;28;20044;-67
2022/08/23 00:12:06;;;;;;;7.00;4.40;;;;;;;23.16;46.49;101229.31;5090799;28;20032;-67
2022/08/23 00:14:39;;;;;;;6.50;4.30;;;;;;;23.10;46.49;101230.91;5091112;28;20044;-67
2022/08/23 00:17:08;;;;;;;7.10;4.53;;;;;;;23.05;46.32;101225.09;5089455;28;20044;-67
2022/08/23 00:19:36;;;;;;;6.80;4.35;;;;;;;23.02;46.55;101227.31;5090186;28;20115;-68
2022/08/23 00:22:03;;;;;;;9.27;4.65;;;;;;;22.99;46.54;101220.31;5093092;28;20055;-67
2022/08/23 00:24:32;;;;;;;12.75;5.78;;;;;;;22.96;46.81;101225.31;5093474;28;20421;-67
2022/08/23 00:27:06;;;;;;;7.93;4.65;;;;;;;22.92;46.76;101223.97;5093417;28;20102;-67
2022/08/23 00:29:40;;;;;;;7.13;4.70;;;;;;;22.86;46.81;101222.81;5094462;28;20067;-67
2022/08/23 00:32:09;;;;;;;10.50;4.60;;;;;;;22.83;46.87;101214.94;5092828;28;20127;-67
2022/08/23 00:34:38;;;;;;;6.65;4.72;;;;;;;22.80;46.94;101218.03;5094504;28;20043;-66
2022/08/23 00:37:05;;;;;;;7.10;4.93;;;;;;;22.78;46.98;101228.28;5092686;28;20036;-67
2022/08/23 00:39:32;;;;;;;7.00;4.75;;;;;;;22.76;47.06;101224.88;5073884;28;20064;-68
2022/08/23 00:48:00;;;;;;;9.07;5.40;;;;;;;22.66;47.40;101225.09;5073965;28;20047;-67
2022/08/23 00:50:40;;;;;;;9.23;4.93;;;;;;;22.63;47.57;101219.13;5072545;28;20052;-67
2022/08/23 00:53:16;;;;;;;9.82;5.47;;;;;;;22.61;47.43;101226.66;5073825;28;20036;-68
2022/08/23 00:55:47;;;;;;;6.72;5.00;;;;;;;22.59;47.43;101221.38;5072426;28;20071;-67
2022/08/23 00:58:18;;;;;;;7.13;5.18;;;;;;;22.59;47.81;101218.63;5056035;28;20379;-67
2022/08/23 01:00:48;;;;;;;9.05;5.97;;;;;;;22.59;47.77;101224.09;5072273;28;20059;-67
2022/08/23 01:03:18;;;;;;;9.25;5.68;;;;;;;22.58;47.92;101227.88;5083399;28;20044;-68
2022/08/23 01:06:00;;;;;;;9.27;5.72;;;;;;;22.55;47.89;101220.03;5093553;28;20064;-67
2022/08/23 01:08:30;;;;;;;8.63;5.82;;;;;;;22.52;47.74;101228.59;5092514;28;20066;-67
2022/08/23 01:11:20;;;;;;;8.45;6.50;;;;;;;22.47;48.29;101231.84;5093670;28;20051;-67
2022/08/23 01:14:10;;;;;;;9.32;6.25;;;;;;;22.45;47.97;101233.06;5093413;28;20032;-67
2022/08/23 01:16:44;;;;;;;7.97;6.22;;;;;;;22.44;48.16;101234.94;5093749;28;20043;-67
2022/08/23 01:19:23;;;;;;;10.40;6.00;;;;;;;22.42;48.48;101234.28;5093851;28;20088;-67
2022/08/23 01:22:00;;;;;;;10.60;6.53;;;;;;;22.40;48.32;101238.22;5092942;28;20047;-67
2022/08/23 01:24:28;;;;;;;10.50;6.18;;;;;;;22.40;48.46;101235.47;5092241;28;20105;-67
2022/08/23 01:27:15;;;;;;;11.57;5.95;;;;;;;22.39;48.61;101233.78;5078134;28;20371;-68
2022/08/23 01:29:41;;;;;;;8.55;5.68;;;;;;;22.38;48.71;101232.06;5075236;28;20044;-67
2022/08/23 01:32:09;;;;;;;7.32;5.22;;;;;;;22.35;48.52;101227.81;5091208;28;20066;-67
2022/08/23 01:34:36;;;;;;;8.20;5.22;;;;;;;22.34;48.74;101231.56;5091687;28;20036;-67
2022/08/23 01:37:11;;;;;;;9.38;4.90;;;;;;;22.32;48.58;101236.38;5093366;28;20037;-67
2022/08/23 01:39:38;;;;;;;6.85;4.47;;;;;;;22.31;48.64;101229.19;5091776;28;20044;-68
2022/08/23 01:42:06;;;;;;;6.07;4.90;;;;;;;22.29;48.76;101223.00;5091383;28;20123;-67
2022/08/23 01:44:34;;;;;;;7.60;4.90;;;;;;;22.30;48.60;101223.88;5091949;28;20048;-68
2022/08/23 01:47:01;;;;;;;6.53;4.82;;;;;;;22.29;48.72;101225.72;5091474;28;20040;-67
2022/08/23 01:49:27;;;;;;;6.07;5.30;;;;;;;22.27;48.68;101224.19;5093228;28;20040;-67
2022/08/23 01:51:54;;;;;;;6.93;4.82;;;;;;;22.23;48.48;101225.59;5091396;28;20039;-67
2022/08/23 01:54:22;;;;;;;10.02;4.72;;;;;;;22.14;48.94;101219.28;5091604;28;20565;-66
2022/08/23 01:56:48;;;;;;;9.70;4.78;;;;;;;22.07;48.82;101221.88;5091500;28;20044;-66
2022/08/23 01:59:16;;;;;;;10.07;5.65;;;;;;;22.03;49.05;101220.50;5091378;28;20489;-67
2022/08/23 02:01:46;;;;;;;6.97;5.55;;;;;;;22.01;48.98;101228.00;5090515;28;20405;-67
2022/08/23 02:04:14;;;;;;;7.55;5.20;;;;;;;21.97;49.16;101223.91;5091510;28;20040;-67
2022/08/23 02:06:40;;;;;;;8.75;4.90;;;;;;;21.96;49.00;101226.81;5091018;28;20494;-67
2022/08/23 02:09:10;;;;;;;7.25;4.85;;;;;;;21.93;48.94;101230.75;5091213;28;20134;-67
2022/08/23 02:11:44;;;;;;;6.60;5.55;;;;;;;21.91;49.35;101227.34;5091628;28;20044;-67
2022/08/23 02:14:15;;;;;;;7.47;5.43;;;;;;;21.91;49.50;101229.22;5091180;28;20036;-67
2022/08/23 02:16:55;;;;;;;6.35;4.95;;;;;;;21.89;49.15;101227.50;5091085;28;20052;-67
2022/08/23 02:19:31;;;;;;;8.75;5.45;;;;;;;21.88;49.34;101231.28;5092290;28;20407;-68
2022/08/23 02:21:58;;;;;;;8.73;5.90;;;;;;;21.86;49.73;101227.84;5091043;28;20075;-67
2022/08/23 02:24:25;;;;;;;9.45;6.22;;;;;;;21.85;49.34;101231.63;5092231;28;20028;-68
2022/08/23 02:26:55;;;;;;;10.25;6.65;;;;;;;21.84;49.36;101223.59;5092415;28;20118;-68
2022/08/23 02:29:27;;;;;;;9.05;7.47;;;;;;;21.84;49.62;101229.06;5091202;28;20054;-68
2022/08/23 02:31:56;;;;;;;8.93;6.10;;;;;;;21.82;49.79;101231.13;5090706;28;20048;-68
2022/08/23 02:34:27;;;;;;;10.27;7.13;;;;;;;21.80;49.65;101230.44;5090879;28;20517;-67
2022/08/23 02:36:54;;;;;;;9.23;6.70;;;;;;;21.78;49.80;101230.59;5090477;28;20040;-67
2022/08/23 02:39:22;;;;;;;12.55;7.50;;;;;;;21.76;49.63;101231.81;5090659;28;20051;-67
2022/08/23 02:41:49;;;;;;;9.98;7.18;;;;;;;21.75;49.62;101221.91;5090444;28;20113;-67
2022/08/23 02:44:21;;;;;;;11.52;7.15;;;;;;;21.74;50.08;101222.91;5089963;28;20047;-67
2022/08/23 02:46:48;;;;;;;10.85;7.38;;;;;;;21.73;50.18;101226.69;5090664;28;20044;-67
2022/08/23 02:49:16;;;;;;;13.98;7.00;;;;;;;21.71;50.36;101224.13;5091899;28;20504;-67
2022/08/23 02:51:43;;;;;;;8.68;6.18;;;;;;;21.70;50.02;101229.75;5090628;28;20123;-67
2022/08/23 02:54:10;;;;;;;9.38;7.15;;;;;;;21.69;50.27;101234.38;5091838;28;20056;-68
2022/08/23 02:56:37;;;;;;;11.25;7.07;;;;;;;21.68;50.06;101234.53;5090413;28;20040;-67
2022/08/23 02:59:04;;;;;;;10.13;7.57;;;;;;;21.66;50.33;101231.13;5090360;28;20055;-67
2022/08/23 03:01:34;;;;;;;11.93;7.10;;;;;;;21.63;50.12;101229.59;5090468;28;20135;-67
2022/08/23 03:04:19;;;;;;;8.52;6.72;;;;;;;21.62;50.38;101224.31;5090366;28;20176;-67
2022/08/23 03:06:45;;;;;;;8.80;6.90;;;;;;;21.61;50.48;101228.91;5091591;28;20036;-68
2022/08/23 03:09:12;;;;;;;8.80;6.45;;;;;;;21.58;50.15;101240.19;5089902;28;20040;-68
2022/08/23 03:11:43;;;;;;;8.75;6.43;;;;;;;21.53;50.31;101231.63;5091338;28;20047;-68
2022/08/23 03:14:10;;;;;;;10.43;5.57;;;;;;;21.48;49.98;101237.59;5090361;28;20453;-68
2022/08/23 03:16:37;;;;;;;9.85;6.40;;;;;;;21.42;49.87;101241.00;5090034;28;20521;-68
2022/08/23 03:19:04;;;;;;;11.82;7.45;;;;;;;21.37;50.09;101251.59;5090722;28;20048;-68
2022/08/23 03:21:31;;;;;;;9.50;6.32;;;;;;;21.30;50.53;101246.97;5090108;28;20066;-68
2022/08/23 03:24:03;;;;;;;7.45;6.70;;;;;;;21.24;50.56;101249.34;5090305;28;20131;-68
2022/08/23 03:26:36;;;;;;;8.88;6.85;;;;;;;21.21;50.37;101252.41;5090055;28;20032;-68
2022/08/23 03:29:03;;;;;;;14.40;7.55;;;;;;;21.17;50.13;101259.22;5091437;28;20050;-67
2022/08/23 03:31:39;;;;;;;9.50;7.18;;;;;;;21.15;50.08;101261.25;5089815;28;20040;-68
2022/08/23 03:34:11;;;;;;;9.93;7.05;;;;;;;21.12;50.44;101268.94;5090221;28;20097;-67
2022/08/23 03:36:38;;;;;;;12.35;7.18;;;;;;;21.09;50.21;101266.53;5089958;28;20094;-67
2022/08/23 03:39:05;;;;;;;10.73;7.55;;;;;;;21.04;50.44;101271.66;5089031;28;20182;-68
2022/08/23 03:41:32;;;;;;;10.93;8.70;;;;;;;20.99;50.28;101276.75;5089716;28;20044;-67
2022/08/23 03:44:00;;;;;;;10.45;7.82;;;;;;;20.92;50.71;101276.56;5091012;28;20081;-68
2022/08/23 03:46:30;;;;;;;12.43;8.50;;;;;;;20.91;50.67;101272.97;5089808;28;20044;-68
2022/08/23 03:49:01;;;;;;;14.10;9.13;;;;;;;20.90;51.00;101268.53;5089991;28;20089;-67
2022/08/23 03:51:37;;;;;;;12.48;9.38;;;;;;;20.88;50.82;101267.00;5089554;28;20044;-68
2022/08/23 03:54:05;;;;;;;11.70;8.98;;;;;;;20.86;51.09;101280.81;5090441;28;20032;-67
2022/08/23 03:56:35;;;;;;;12.52;9.13;;;;;;;20.84;50.85;101279.25;5094027;28;20062;-67
2022/08/23 03:59:10;;;;;;;13.27;8.38;;;;;;;20.84;50.88;101285.56;5093688;28;20140;-68
2022/08/23 04:01:36;;;;;;;15.52;9.18;;;;;;;20.83;51.20;101289.34;5076743;28;20040;-68
2022/08/23 04:04:04;;;;;;;11.25;8.82;;;;;;;20.84;50.89;101295.66;5095213;28;20044;-68
2022/08/23 04:06:32;;;;;;;15.48;10.05;;;;;;;20.81;50.97;101293.25;5092544;28;20044;-67
2022/08/23 04:08:59;;;;;;;11.95;10.02;;;;;;;20.76;51.13;101284.66;5094813;28;20036;-67
2022/08/23 04:11:26;;;;;;;15.27;10.07;;;;;;;20.74;51.57;101289.44;5094823;28;20040;-68
2022/08/23 04:14:00;;;;;;;13.88;9.82;;;;;;;20.74;51.38;101286.69;5093527;28;20051;-68
2022/08/23 04:16:28;;;;;;;13.25;10.20;;;;;;;20.74;51.93;101293.00;5093398;28;20040;-67
2022/08/23 04:18:55;;;;;;;11.65;10.32;;;;;;;20.75;51.61;101299.31;5092970;28;20093;-67
2022/08/23 04:21:24;;;;;;;16.40;10.40;;;;;;;20.74;51.80;101295.75;5093306;28;20055;-68
2022/08/23 04:23:53;;;;;;;11.55;10.35;;;;;;;20.76;52.20;101299.16;5093186;28;20036;-68
2022/08/23 04:26:20;;;;;;;13.45;10.18;;;;;;;20.79;52.00;101292.53;5093459;28;20579;-67
2022/08/23 04:28:47;;;;;;;13.93;9.98;;;;;;;20.81;52.36;101290.50;5093326;28;20421;-68
2022/08/23 04:31:16;;;;;;;18.77;11.23;;;;;;;20.84;52.38;101301.09;5093862;27;20066;-67
2022/08/23 04:33:46;;;;;;;13.50;10.50;;;;;;;20.87;52.23;101289.84;5092687;28;20553;-67
2022/08/23 04:36:19;;;;;;;12.07;10.60;;;;;;;20.88;52.36;101291.56;5093118;28;20075;-68
2022/08/23 04:38:49;;;;;;;12.07;9.45;;;;;;;20.86;52.25;101291.72;5094446;28;20059;-67
2022/08/23 04:44:02;;;;;;;14.20;10.23;;;;;;;20.81;52.12;101294.09;5093095;28;20121;-67
2022/08/23 04:46:30;;;;;;;15.18;10.48;;;;;;;20.79;52.07;101293.38;5092793;28;20048;-68
2022/08/23 04:49:00;;;;;;;15.35;10.70;;;;;;;20.78;52.35;101291.66;5092809;28;20051;-67
2022/08/23 04:51:27;;;;;;;14.38;10.85;;;;;;;20.79;52.38;101303.44;5092608;28;20402;-67
2022/08/23 04:53:55;;;;;;;15.38;11.35;;;;;;;20.82;52.54;101305.88;5092805;28;20032;-67
2022/08/23 04:56:30;;;;;;;12.93;10.32;;;;;;;20.85;52.34;101305.53;5094041;27;20072;-67
2022/08/23 04:58:57;;;;;;;16.58;11.43;;;;;;;20.87;52.34;101312.56;5092656;28;20136;-67
2022/08/23 05:01:25;;;;;;;11.20;10.00;;;;;;;20.90;52.56;101312.22;5092435;28;20050;-66
2022/08/23 05:03:59;;;;;;;13.68;10.20;;;;;;;20.95;52.38;101311.72;5091471;28;20044;-67
2022/08/23 05:06:27;;;;;;;16.30;11.77;;;;;;;20.98;52.74;101319.59;5091473;28;20093;-67
2022/08/23 05:08:54;;;;;;;16.80;11.18;;;;;;;21.01;52.46;101321.13;5092393;28;20055;-68
2022/08/23 05:11:21;;;;;;;14.77;11.25;;;;;;;21.04;52.95;101326.25;5092035;28;20510;-67
2022/08/23 05:13:52;;;;;;;13.80;11.40;;;;;;;21.08;52.93;101324.91;5091986;28;20040;-68
2022/08/23 05:16:21;;;;;;;18.55;12.25;;;;;;;21.11;52.93;101325.44;5092213;28;20097;-68
2022/08/23 05:18:55;;;;;;;15.05;10.18;;;;;;;21.15;52.77;101323.22;5092250;28;20135;-68
2022/08/23 05:21:23;;;;;;;13.18;10.65;;;;;;;21.17;52.45;101318.44;5092256;28;20121;-68
2022/08/23 05:23:51;;;;;;;12.65;11.20;;;;;;;21.17;52.69;101318.44;5092079;27;20082;-68
2022/08/23 05:26:22;;;;;;;17.30;11.85;;;;;;;21.18;52.81;101321.00;5091794;28;20426;-68
2022/08/23 05:28:49;;;;;;;17.00;12.30;;;;;;;21.19;52.77;101309.06;5092322;28;20421;-68
2022/08/23 05:31:23;;;;;;;16.40;11.80;;;;;;;21.25;53.01;101321.25;5091934;28;20036;-68
2022/08/23 05:33:54;;;;;;;19.48;12.98;;;;;;;21.33;53.22;101318.53;5091991;28;20044;-68
2022/08/23 05:36:31;;;;;;;16.80;12.35;;;;;;;21.39;53.24;101323.31;5091669;28;20109;-68
2022/08/23 05:38:59;;;;;;;16.58;11.30;;;;;;;21.46;53.14;101321.63;5091968;28;20044;-68
2022/08/23 05:41:27;;;;;;;17.88;12.10;;;;;;;21.52;52.98;101326.41;5091660;28;20044;-67
2022/08/23 05:44:09;;;;;;;15.93;13.75;;;;;;;21.58;52.96;101332.25;5091734;28;20040;-68
2022/08/23 05:46:41;;;;;;;15.75;13.43;;;;;;;21.64;53.15;101337.06;5071570;28;20112;-67
2022/08/23 05:49:28;;;;;;;16.27;12.55;;;;;;;21.70;52.83;101333.63;5088241;28;20397;-67
2022/08/23 05:51:55;;;;;;;15.93;13.65;;;;;;;21.75;52.95;101344.91;5091500;28;20063;-67
2022/08/23 05:54:30;;;;;;;16.48;13.00;;;;;;;21.82;53.16;101348.69;5091545;28;20047;-67
2022/08/23 05:57:26;;;;;;;19.33;12.85;;;;;;;21.91;53.37;101357.75;5087903;28;20048;-68
2022/08/23 05:59:52;;;;;;;16.10;13.88;;;;;;;21.97;53.41;101355.19;5092044;28;20050;-67
2022/08/23 06:02:19;;;;;;;17.52;14.77;;;;;;;22.04;53.57;101364.44;5091065;28;20426;-68
2022/08/23 06:04:51;;;;;;;17.42;15.07;;;;;;;22.11;53.56;101365.47;5091722;28;20048;-68
2022/08/23 06:07:22;;;;;;;17.73;15.82;;;;;;;22.17;53.52;101369.41;5091384;28;20051;-67
2022/08/23 06:09:49;;;;;;;20.70;15.70;;;;;;;22.23;53.67;101368.72;5091517;28;20063;-68
2022/08/23 06:12:16;;;;;;;17.83;15.93;;;;;;;22.28;54.03;101368.19;5090714;28;20044;-67
2022/08/23 06:14:42;;;;;;;21.92;16.67;;;;;;;22.32;53.76;101367.72;5091432;28;20082;-67
2022/08/23 06:17:10;;;;;;;18.25;16.38;;;;;;;22.39;54.03;101357.78;5091020;28;20446;-67
2022/08/23 06:19:37;;;;;;;22.42;17.23;;;;;;;22.49;54.04;101361.19;5092041;28;20059;-68
2022/08/23 06:22:23;;;;;;;20.45;17.00;;;;;;;22.61;54.00;101364.41;5090661;28;20048;-68
2022/08/23 06:24:50;;;;;;;19.77;17.05;;;;;;;22.71;53.77;101362.31;5090559;28;20134;-67
2022/08/23 06:27:18;;;;;;;19.95;17.73;;;;;;;22.82;54.21;101367.44;5092264;28;20472;-66
2022/08/23 06:29:45;;;;;;;21.33;18.83;;;;;;;22.91;53.93;101368.28;5090920;28;20078;-66
2022/08/23 06:32:29;;;;;;;21.57;19.23;;;;;;;23.00;53.94;101367.22;5091947;28;20045;-66
2022/08/23 06:35:15;;;;;;;24.45;20.77;;;;;;;23.12;53.74;101370.44;5091793;28;20058;-66
2022/08/23 06:38:06;;;;;;;24.52;20.15;;;;;;;23.25;54.02;101372.63;5090811;28;20040;-68
2022/08/23 06:41:07;;;;;;;23.52;18.83;;;;;;;23.36;53.59;101367.59;5070433;28;20072;-67
2022/08/23 06:43:44;;;;;;;21.98;18.17;;;;;;;23.49;53.40;101363.41;5070430;28;20127;-67
2022/08/23 06:46:21;;;;;;;23.88;19.15;;;;;;;23.62;53.41;101366.44;5076585;28;20365;-67
2022/08/23 06:48:50;;;;;;;25.08;20.70;;;;;;;23.75;53.35;101370.28;5092100;28;20036;-67
2022/08/23 06:51:29;;;;;;;23.48;18.83;;;;;;;23.93;53.35;101367.25;5090679;28;20450;-71
2022/08/23 06:54:09;;;;;;;24.33;18.08;;;;;;;24.09;53.06;101364.38;5090727;28;20036;-71
2022/08/23 06:57:04;;;;;;;21.75;17.38;;;;;;;24.32;52.68;101363.53;5090408;28;20067;-71
2022/08/23 06:59:44;;;;;;;18.92;15.68;;;;;;;24.47;52.05;101369.03;5090043;28;20036;-71
2022/08/23 07:02:31;;;;;;;19.25;15.88;;;;;;;24.58;51.96;101360.38;5090251;28;20047;-71
2022/08/23 07:05:17;;;;;;;26.88;16.98;;;;;;;24.76;51.57;101368.25;5080191;28;20468;-72
2022/08/23 07:08:03;;;;;;;22.08;14.50;;;;;;;24.92;51.31;101365.31;5091978;28;20047;-71
2022/08/23 07:10:29;;;;;;;19.90;14.38;;;;;;;25.04;51.12;101363.81;5089752;28;20516;-72
2022/08/23 07:12:56;;;;;;;18.48;13.65;;;;;;;25.16;51.02;101359.53;5070941;28;20040;-72
2022/08/23 07:15:23;;;;;;;22.00;14.43;;;;;;;25.30;50.70;101355.94;5084012;28;20123;-70
2022/08/23 07:17:50;;;;;;;16.00;13.77;;;;;;;25.41;50.18;101365.56;5090001;28;20040;-69
2022/08/23 07:20:17;;;;;;;17.45;13.63;;;;;;;25.54;50.05;101364.88;5073472;28;20559;-69
2022/08/23 07:22:44;;;;;;;19.73;14.02;;;;;;;25.70;49.86;101372.06;5087538;28;20082;-70
2022/08/23 07:25:11;;;;;;;17.35;14.02;;;;;;;25.86;49.67;101366.31;5090323;28;20540;-69
2022/08/23 07:27:39;;;;;;;16.73;12.18;;;;;;;26.01;49.28;101368.97;5072723;28;20040;-69
2022/08/23 07:30:07;;;;;;;17.67;13.02;;;;;;;26.14;48.92;101375.50;5089562;28;20048;-69
2022/08/23 07:32:36;;;;;;;22.70;12.20;;;;;;;26.24;48.57;101378.75;5088698;28;20036;-69
2022/08/23 07:35:45;;;;;;;16.50;12.32;;;;;;;26.39;47.88;101375.09;5090247;28;20517;-69
2022/08/23 07:38:11;;;;;;;18.70;12.45;;;;;;;26.51;47.76;101381.75;5090014;28;20056;-68
2022/08/23 07:40:38;;;;;;;15.23;12.68;;;;;;;26.60;47.59;101381.41;5090069;28;20032;-69
2022/08/23 07:43:12;;;;;;;16.77;11.85;;;;;;;26.70;47.44;101375.53;5090003;28;20032;-70
2022/08/23 07:45:42;;;;;;;14.93;11.57;;;;;;;26.88;47.04;101391.56;5089917;28;20040;-70
2022/08/23 07:48:19;;;;;;;17.00;12.13;;;;;;;27.03;47.06;101395.09;5090217;28;20048;-70
2022/08/23 07:51:20;;;;;;;19.33;11.27;;;;;;;27.16;46.85;101392.41;5089777;28;20449;-68
2022/08/23 07:53:50;;;;;;;18.02;12.57;;;;;;;27.29;46.75;101399.03;5091408;28;20059;-69
2022/08/23 07:56:19;;;;;;;18.27;12.23;;;;;;;27.41;46.33;101397.38;5089715;28;20047;-69
2022/08/23 07:59:02;;;;;;;25.23;14.77;;;;;;;27.49;46.33;101397.19;5089519;28;20040;-68
2022/08/23 08:01:45;;;;;;;33.88;14.38;;;;;;;27.67;46.21;101402.19;5089411;28;20051;-69
2022/08/23 08:04:13;;;;;;;45.80;21.15;;;;;;;27.80;46.70;101405.00;5089998;28;20063;-69
2022/08/23 08:06:46;;;;;;;19.20;12.25;;;;;;;27.82;46.80;101408.41;5089762;28;20047;-69
2022/08/23 08:09:35;;;;;;;20.38;12.18;;;;;;;27.71;45.99;101415.38;5091030;28;20048;-70
2022/08/23 08:12:03;;;;;;;19.83;12.88;;;;;;;27.64;46.08;101414.50;5089361;28;20506;-71
2022/08/23 08:14:31;;;;;;;21.85;12.90;;;;;;;27.65;45.67;101407.09;5089329;28;20477;-70
2022/08/23 08:17:02;;;;;;;16.20;10.90;;;;;;;27.71;45.60;101415.38;5087338;28;20097;-69
2022/08/23 08:19:49;;;;;;;14.52;12.15;;;;;;;27.79;45.13;101414.34;5089646;28;20494;-70
2022/08/23 08:22:42;;;;;;;18.63;12.25;;;;;;;27.83;45.09;101419.22;5089284;28;20048;-69
2022/08/23 08:25:37;;;;;;;18.23;11.88;;;;;;;27.89;44.87;101420.31;5080076;28;20398;-69
2022/08/23 08:28:06;;;;;;;18.73;12.45;;;;;;;27.95;45.06;101416.72;5089529;28;20044;-70
2022/08/23 08:30:40;;;;;;;18.83;11.43;;;;;;;28.08;44.46;101413.13;5089513;28;20048;-69
2022/08/23 08:33:10;;;;;;;18.95;12.30;;;;;;;28.16;44.56;101422.06;5089666;28;20042;-69
2022/08/23 08:35:38;;;;;;;13.73;11.30;;;;;;;28.32;44.54;101407.03;5094863;28;20436;-69
2022/08/23 08:38:05;;;;;;;15.88;11.80;;;;;;;28.44;44.30;101412.78;5088993;28;20097;-70
2022/08/23 08:40:39;;;;;;;17.27;11.60;;;;;;;28.59;43.65;101415.31;5091948;28;20489;-69
2022/08/23 08:43:21;;;;;;;20.75;12.18;;;;;;;28.68;43.51;101417.66;5066101;28;20138;-69
2022/08/23 08:45:54;;;;;;;14.38;11.65;;;;;;;28.77;43.14;101418.28;5092896;28;20074;-69
2022/08/23 08:48:26;;;;;;;19.23;11.63;;;;;;;28.87;42.97;101423.41;5109413;28;20223;-69
2022/08/23 08:50:59;;;;;;;22.23;12.90;;;;;;;28.95;42.76;101415.72;5096342;28;20065;-69
2022/08/23 08:53:42;;;;;;;16.33;12.65;;;;;;;28.96;42.49;101417.41;5114102;28;20152;-69
2022/08/23 08:56:21;;;;;;;16.92;12.10;;;;;;;28.98;42.29;101415.28;5114297;28;20417;-69
2022/08/23 08:59:05;;;;;;;18.35;12.43;;;;;;;29.04;42.40;101414.44;5112755;28;20451;-69
2022/08/23 09:01:36;;;;;;;16.20;12.07;;;;;;;29.15;42.52;101415.69;5112821;28;20054;-69
2022/08/23 09:04:08;;;;;;;18.27;11.82;;;;;;;29.25;42.36;101420.78;5114136;28;20035;-69
2022/08/23 09:07:10;;;;;;;16.02;11.73;;;;;;;29.32;42.15;101422.44;5096407;28;20035;-69
2022/08/23 09:10:25;;;;;;;17.50;12.10;;;;;;;29.37;42.08;101421.78;5103227;28;20494;-70
2022/08/23 09:13:37;;;;;;;19.08;13.02;;;;;;;29.41;42.03;101423.06;5042654;28;20398;-69
2022/08/23 09:16:23;;;;;;;15.52;12.05;;;;;;;29.48;41.62;101423.91;5093552;28;20036;-69
2022/08/23 09:18:50;;;;;;;15.07;12.43;;;;;;;29.52;41.65;101422.41;5091845;28;20036;-70
2022/08/23 09:21:17;;;;;;;18.38;12.15;;;;;;;29.54;41.83;101425.78;5090574;28;20047;-70
2022/08/23 09:23:47;;;;;;;22.00;11.35;;;;;;;29.60;41.72;101424.91;5091899;28;20051;-69
2022/08/23 09:26:35;;;;;;;16.90;11.32;;;;;;;29.71;41.53;101428.91;5092042;28;20048;-69
2022/08/23 09:29:26;;;;;;;15.25;11.13;;;;;;;29.79;41.32;101423.13;5091527;28;20086;-70
2022/08/23 09:31:57;;;;;;;18.25;11.32;;;;;;;29.88;41.32;101424.56;5093413;28;20477;-70
2022/08/23 09:34:29;;;;;;;14.68;10.88;;;;;;;29.96;41.11;101426.22;5092060;28;20109;-69
2022/08/23 09:37:11;;;;;;;16.30;10.52;;;;;;;30.01;40.88;101427.28;5091929;28;20082;-70
2022/08/23 09:39:43;;;;;;;15.57;10.18;;;;;;;30.04;40.54;101426.00;5107190;28;20044;-69
2022/08/23 09:42:40;;;;;;;13.35;10.40;;;;;;;30.08;40.42;101426.41;5093043;28;20059;-69
2022/08/23 09:45:32;;;;;;;15.30;9.07;;;;;;;30.15;40.41;101425.28;5091935;28;20502;-69
2022/08/23 09:48:05;;;;;;;12.27;9.38;;;;;;;30.21;39.99;101427.16;5091473;28;20071;-69
2022/08/23 09:50:44;;;;;;;11.35;9.60;;;;;;;30.22;40.06;101425.22;5091186;28;20417;-70
2022/08/23 09:53:25;;;;;;;18.02;10.23;;;;;;;30.30;40.15;101424.97;5091116;28;20036;-73
2022/08/23 09:55:56;;;;;;;16.00;9.20;;;;;;;30.42;39.84;101419.53;5091824;28;20048;-72
2022/08/23 09:58:37;;;;;;;14.35;7.05;;;;;;;30.54;39.65;101423.28;5090882;28;20642;-72
2022/08/23 10:01:22;;;;;;;11.70;5.28;;;;;;;30.70;39.71;101422.75;5091287;28;20082;-71
2022/08/23 10:04:21;;;;;;;11.57;5.78;;;;;;;30.82;38.98;101423.69;5075999;28;20489;-71
2022/08/23 10:06:49;;;;;;;10.35;5.40;;;;;;;30.91;38.74;101416.78;5074620;28;20048;-72
2022/08/23 10:09:30;;;;;;;8.52;3.45;;;;;;;31.02;38.50;101417.09;5090938;28;20490;-71
2022/08/23 10:11:59;;;;;;;10.02;4.13;;;;;;;31.12;38.10;101411.84;5091316;28;20043;-71
2022/08/23 10:14:31;;;;;;;6.35;3.72;;;;;;;31.18;37.56;101405.41;5091809;28;20036;-71
2022/08/23 10:17:11;;;;;;;5.47;3.53;;;;;;;31.29;37.82;101413.84;5091209;28;20490;-71
2022/08/23 10:20:03;;;;;;;7.47;3.40;;;;;;;31.43;37.37;101411.75;5091887;28;20097;-71
2022/08/23 10:22:44;;;;;;;11.10;4.60;;;;;;;31.56;37.19;101408.78;5091484;28;20051;-72
2022/08/23 10:25:41;;;;;;;9.90;3.95;;;;;;;31.71;36.86;101410.34;5091091;28;20090;-70
2022/08/23 10:31:21;;;;;;;5.30;2.63;;;;;;;32.07;36.09;101407.47;5070615;28;20055;-71
2022/08/23 10:34:12;;;;;;;5.85;2.90;;;;;;;32.21;36.23;101408.94;5070082;28;20040;-71
2022/08/23 10:37:07;;;;;;;7.95;2.78;;;;;;;32.35;36.18;101406.00;5070574;28;20406;-71
2022/08/23 10:39:44;;;;;;;8.15;2.70;;;;;;;32.51;35.60;101410.84;5080617;28;20044;-71
2022/08/23 10:42:58;;;;;;;6.03;2.35;;;;;;;32.64;35.29;101404.19;5090072;28;20086;-71
2022/08/23 10:45:28;;;;;;;5.00;2.65;;;;;;;32.78;35.39;101402.94;5029774;28;20063;-71
2022/08/23 10:48:30;;;;;;;6.65;2.65;;;;;;;32.86;35.00;101405.34;5090429;28;20051;-68
2022/08/23 10:51:01;;;;;;;6.60;3.28;;;;;;;32.88;34.39;101397.59;5088953;28;20453;-71
2022/08/23 10:53:36;;;;;;;6.40;2.50;;;;;;;32.95;34.21;101394.69;5073931;28;20044;-70
2022/08/23 10:56:12;;;;;;;11.55;3.35;;;;;;;33.06;34.47;101400.22;5090504;28;20067;-70
2022/08/23 10:58:47;;;;;;;7.45;2.38;;;;;;;33.18;33.90;101400.22;5089738;28;20044;-71
2022/08/23 11:01:25;;;;;;;7.40;2.35;;;;;;;33.23;33.40;101393.91;5089835;28;20093;-70
2022/08/23 11:04:03;;;;;;;5.85;2.50;;;;;;;33.25;33.33;101392.56;5089212;28;20075;-70
2022/08/23 11:06:48;;;;;;;6.70;2.75;;;;;;;33.30;32.76;101389.06;5089691;28;20093;-70
2022/08/23 11:09:18;;;;;;;5.50;2.67;;;;;;;33.33;32.61;101392.22;5089527;28;20131;-70
2022/08/23 11:12:05;;;;;;;7.20;3.10;;;;;;;33.31;32.67;101391.63;5089797;28;20048;-70
2022/08/23 11:14:45;;;;;;;7.97;2.63;;;;;;;33.33;32.63;101397.78;5089998;28;20082;-70
2022/08/23 11:17:56;;;;;;;5.03;3.00;;;;;;;33.35;32.74;101395.59;5090214;28;20409;-70
2022/08/23 11:20:50;;;;;;;9.30;3.42;;;;;;;33.46;32.43;101386.38;5083171;28;20442;-70
2022/08/23 11:23:53;;;;;;;5.88;3.00;;;;;;;33.55;32.69;101384.06;5090115;28;20052;-70
2022/08/23 11:26:21;;;;;;;8.40;3.05;;;;;;;33.67;32.61;101381.22;5089849;28;20054;-70
2022/08/23 11:28:50;;;;;;;8.85;2.78;;;;;;;33.76;32.52;101383.34;5089667;28;20359;-70
2022/08/23 11:31:20;;;;;;;7.32;2.85;;;;;;;33.87;32.21;101383.56;5089603;28;20078;-70
2022/08/23 11:33:59;;;;;;;8.32;3.15;;;;;;;33.93;31.65;101385.34;5089755;28;20393;-70
2022/08/23 11:36:28;;;;;;;7.35;2.97;;;;;;;33.95;31.51;101392.38;5089369;28;20036;-70
2022/08/23 11:38:54;;;;;;;7.82;2.58;;;;;;;33.97;31.64;101390.19;5089082;28;20048;-69
2022/08/23 11:41:30;;;;;;;5.18;2.13;;;;;;;33.98;31.57;101383.50;5089527;28;20040;-70
2022/08/23 11:44:02;;;;;;;12.10;2.95;;;;;;;34.06;31.36;101383.09;5090892;28;20032;-70
2022/08/23 11:46:34;;;;;;;5.70;2.55;;;;;;;34.16;31.76;101384.38;5090609;28;20143;-70
2022/08/23 11:49:28;;;;;;;5.07;2.38;;;;;;;34.27;31.07;101381.53;5089544;28;20063;-70
2022/08/23 11:52:23;;;;;;;7.30;3.03;;;;;;;34.39;31.10;101381.47;5091003;28;20418;-70
2022/08/23 11:55:18;;;;;;;5.85;2.30;;;;;;;34.44;31.04;101377.94;5089678;28;20060;-71
2022/08/23 11:57:51;;;;;;;7.57;2.10;;;;;;;34.44;30.62;101377.94;5081414;28;20191;-70
2022/08/23 12:00:24;;;;;;;4.53;1.77;;;;;;;34.44;31.14;101380.72;5090876;28;20086;-71
2022/08/23 12:03:24;;;;;;;5.20;2.50;;;;;;;34.39;30.56;101378.69;5091034;28;20059;-70